Barberville, Florida
Current Conditions -  °F | °C
As of 11:35 AM on Wednesday 22 Oct 2014 (Local Time) from KDED Reporting Station
Clear Clear  
Wind Chill: 77°   Ceiling: Unl
Heat Index: 79°   Visibility: 10mi
Dew Point: 57°   Wind: 7mph
Humidity: 50%   Direction: 30°NNE
Pressure: 30.02"   Gusts: NA
Location:  29.19°N, 81.42°W
Report Text: KDED 221535Z AUTO 03006KT 10SM CLR 25/14 A3002 RMK AO1
Loading
Personal Weather Stations






























Interactive Weather Map
Tropical Storm Tracking
New forecast layout! Learn more

10-Day Weather Forecast

Advertisements
Track Severe Weather on mobile